createdAt,value
2023-01-05T00:01:36.560Z,10.30
2023-01-05T00:04:05.739Z,10.30
2023-01-05T00:06:34.361Z,10.30
2023-01-05T00:09:04.230Z,10.30
2023-01-05T00:11:49.508Z,10.40
2023-01-05T00:14:37.513Z,10.40
2023-01-05T00:17:23.604Z,10.40
2023-01-05T00:20:09.572Z,10.50
2023-01-05T00:22:45.172Z,10.50
2023-01-05T00:25:16.763Z,10.50
2023-01-05T00:27:47.981Z,10.60
2023-01-05T00:30:18.378Z,10.60
2023-01-05T00:32:47.129Z,10.60
2023-01-05T00:35:16.758Z,10.60
2023-01-05T00:37:45.605Z,10.60
2023-01-05T00:40:16.813Z,10.50
2023-01-05T00:42:44.991Z,10.60
2023-01-05T00:45:15.208Z,10.50
2023-01-05T00:47:44.102Z,10.50
2023-01-05T00:50:15.509Z,10.40
2023-01-05T00:52:44.321Z,10.40
2023-01-05T00:55:12.365Z,10.40
2023-01-05T00:57:41.811Z,10.30
2023-01-05T01:00:13.764Z,10.30
2023-01-05T01:02:41.770Z,10.20
2023-01-05T01:05:10.412Z,10.20
2023-01-05T01:07:38.413Z,10.20
2023-01-05T01:10:07.737Z,10.20
2023-01-05T01:12:35.832Z,10.20
2023-01-05T01:15:05.905Z,10.20
2023-01-05T01:17:34.670Z,10.30
2023-01-05T01:20:02.644Z,10.20
2023-01-05T01:22:30.710Z,10.20
2023-01-05T01:24:58.641Z,10.20
2023-01-05T01:27:26.615Z,10.20
2023-01-05T01:29:54.551Z,10.20
2023-01-05T01:32:24.659Z,10.20
2023-01-05T01:34:52.826Z,10.20
2023-01-05T01:37:20.827Z,10.10
2023-01-05T01:39:48.778Z,10.10
2023-01-05T01:42:17.735Z,10.10
2023-01-05T01:44:58.182Z,10.10
2023-01-05T01:47:33.210Z,10.00
2023-01-05T01:50:06.075Z,10.00
2023-01-05T01:52:35.346Z,10.00
2023-01-05T01:55:06.701Z,10.00
2023-01-05T01:57:36.150Z,9.90
2023-01-05T02:00:07.945Z,10.00
2023-01-05T02:02:37.408Z,10.00
2023-01-05T02:05:09.568Z,10.00
2023-01-05T02:07:44.124Z,9.90
2023-01-05T02:10:13.037Z,10.00
2023-01-05T02:12:54.322Z,10.00
2023-01-05T02:15:27.566Z,10.00
2023-01-05T02:18:09.291Z,10.00
2023-01-05T02:21:02.013Z,10.00
2023-01-05T02:24:03.479Z,9.90
2023-01-05T02:26:53.225Z,9.90
2023-01-05T02:30:00.609Z,9.90
2023-01-05T02:32:34.732Z,9.90
2023-01-05T02:35:13.223Z,9.90
2023-01-05T02:37:47.032Z,9.90
2023-01-05T02:40:20.931Z,9.90
2023-01-05T02:42:52.993Z,9.90
2023-01-05T02:45:23.494Z,9.90
2023-01-05T02:47:53.787Z,9.90
2023-01-05T02:50:26.788Z,9.90
2023-01-05T02:52:59.028Z,9.90
2023-01-05T02:55:31.411Z,9.90
2023-01-05T02:58:03.820Z,9.90
2023-01-05T03:00:37.297Z,9.90
2023-01-05T03:03:12.333Z,9.80
2023-01-05T03:05:44.504Z,9.80
2023-01-05T03:08:25.077Z,9.80
2023-01-05T03:11:21.260Z,9.70
2023-01-05T03:13:55.863Z,9.70
2023-01-05T03:16:27.485Z,9.70
2023-01-05T03:19:18.035Z,9.70
2023-01-05T03:22:04.657Z,9.70
2023-01-05T03:24:50.653Z,9.70
2023-01-05T03:27:37.029Z,9.70
2023-01-05T03:30:23.134Z,9.70
2023-01-05T03:33:12.999Z,9.70
2023-01-05T03:35:45.034Z,9.70
2023-01-05T03:38:19.691Z,9.70
2023-01-05T03:40:51.069Z,9.70
2023-01-05T03:43:19.620Z,9.70
2023-01-05T03:45:53.673Z,9.70
2023-01-05T03:48:21.953Z,9.80
2023-01-05T03:50:51.377Z,9.70
2023-01-05T03:53:19.400Z,9.80
2023-01-05T03:55:47.377Z,9.70
2023-01-05T03:58:15.300Z,9.70
2023-01-05T04:00:43.367Z,9.80
2023-01-05T04:03:11.653Z,9.80
2023-01-05T04:05:39.777Z,9.80
2023-01-05T04:08:09.423Z,9.80
2023-01-05T04:10:37.457Z,9.80
2023-01-05T04:13:05.523Z,9.80
2023-01-05T04:15:33.605Z,9.80
2023-01-05T04:18:01.534Z,9.80
2023-01-05T04:20:29.546Z,9.80
2023-01-05T04:22:57.493Z,9.80
2023-01-05T04:25:26.831Z,9.80
2023-01-05T04:27:54.776Z,9.80
2023-01-05T04:30:22.743Z,9.80
2023-01-05T04:32:50.759Z,9.80
2023-01-05T04:35:18.741Z,9.80
2023-01-05T04:37:46.983Z,9.80
2023-01-05T04:40:16.268Z,9.80
2023-01-05T04:42:45.610Z,9.80
2023-01-05T04:45:13.590Z,9.80
2023-01-05T04:47:41.573Z,9.70
2023-01-05T04:50:10.600Z,9.80
2023-01-05T04:52:38.668Z,9.80
2023-01-05T04:55:07.372Z,9.80
2023-01-05T04:57:35.336Z,9.80
2023-01-05T05:00:06.051Z,9.80
2023-01-05T05:02:34.779Z,9.90
2023-01-05T05:05:02.861Z,9.90
2023-01-05T05:07:30.811Z,10.00
2023-01-05T05:09:58.786Z,9.90
2023-01-05T05:12:26.799Z,10.00
2023-01-05T05:14:54.752Z,10.00
2023-01-05T05:17:24.081Z,10.00
2023-01-05T05:19:52.035Z,10.00
2023-01-05T05:22:20.001Z,10.00
2023-01-05T05:24:47.969Z,10.00
2023-01-05T05:27:15.915Z,10.00
2023-01-05T05:29:43.868Z,10.10
2023-01-05T05:32:11.826Z,10.10
2023-01-05T05:34:41.229Z,10.10
2023-01-05T05:37:09.564Z,10.10
2023-01-05T05:39:37.577Z,10.10
2023-01-05T05:42:05.687Z,10.10
2023-01-05T05:44:33.632Z,10.10
2023-01-05T05:47:01.845Z,10.10
2023-01-05T05:49:29.844Z,10.10
2023-01-05T05:51:59.156Z,10.10
2023-01-05T05:54:27.138Z,10.10
2023-01-05T05:56:55.130Z,10.10
2023-01-05T05:59:23.202Z,10.10
2023-01-05T06:01:52.431Z,10.10
2023-01-05T06:04:20.658Z,10.10
2023-01-05T06:06:48.614Z,10.10
2023-01-05T06:09:17.974Z,10.10
2023-01-05T06:11:46.021Z,10.10
2023-01-05T06:14:14.081Z,10.10
2023-01-05T06:16:42.054Z,10.10
2023-01-05T06:19:10.735Z,10.10
2023-01-05T06:21:38.739Z,10.10
2023-01-05T06:24:07.352Z,10.10
2023-01-05T06:26:36.730Z,10.10
2023-01-05T06:29:04.752Z,10.10
2023-01-05T06:31:32.716Z,10.10
2023-01-05T06:34:00.722Z,10.10
2023-01-05T06:36:28.673Z,10.10
2023-01-05T06:38:56.684Z,10.00
2023-01-05T06:41:24.617Z,10.00
2023-01-05T06:43:54.021Z,10.00
2023-01-05T06:46:22.030Z,9.90
2023-01-05T06:48:51.267Z,9.90
2023-01-05T06:51:19.290Z,9.90
2023-01-05T06:53:47.279Z,9.80
2023-01-05T06:56:15.331Z,9.80
2023-01-05T06:58:43.272Z,9.80
2023-01-05T07:01:12.668Z,9.90
2023-01-05T07:03:40.814Z,9.90
2023-01-05T07:06:14.605Z,9.90
2023-01-05T07:08:43.112Z,9.90
2023-01-05T07:11:11.080Z,10.00
2023-01-05T07:13:39.156Z,10.00
2023-01-05T07:16:07.665Z,10.00
2023-01-05T07:18:36.962Z,10.00
2023-01-05T07:21:05.021Z,10.00
2023-01-05T07:23:33.051Z,10.00
2023-01-05T07:26:02.107Z,10.00
2023-01-05T07:28:30.683Z,10.00
2023-01-05T07:30:58.746Z,10.10
2023-01-05T07:33:26.793Z,10.10
2023-01-05T07:35:56.125Z,10.10
2023-01-05T07:38:24.074Z,10.20
2023-01-05T07:40:52.044Z,10.10
2023-01-05T07:43:19.992Z,10.10
2023-01-05T07:45:48.338Z,10.10
2023-01-05T07:48:23.295Z,10.10
2023-01-05T07:50:51.974Z,10.10
2023-01-05T07:53:21.347Z,10.10
2023-01-05T07:55:59.189Z,10.20
2023-01-05T07:58:28.820Z,10.10
2023-01-05T08:00:57.290Z,10.10
2023-01-05T08:03:25.363Z,10.10
2023-01-05T08:05:53.322Z,10.10
2023-01-05T08:08:24.658Z,10.10
2023-01-05T08:10:52.973Z,10.10
2023-01-05T08:13:38.358Z,10.10
2023-01-05T08:16:07.589Z,10.10
2023-01-05T08:18:35.649Z,10.10
2023-01-05T08:21:04.476Z,10.10
2023-01-05T08:23:34.194Z,10.10
2023-01-05T08:26:05.728Z,10.20
2023-01-05T08:28:35.951Z,10.20
2023-01-05T08:31:05.868Z,10.20
2023-01-05T08:33:34.289Z,10.20
2023-01-05T08:36:02.390Z,10.20
2023-01-05T08:38:30.317Z,10.20
2023-01-05T08:41:01.171Z,10.20
2023-01-05T08:43:29.386Z,10.20
2023-01-05T08:45:57.584Z,10.30
2023-01-05T08:48:25.684Z,10.30
2023-01-05T08:50:54.958Z,10.30
2023-01-05T08:53:22.956Z,10.30
2023-01-05T08:55:50.969Z,10.30
2023-01-05T08:58:20.370Z,10.30
2023-01-05T09:00:48.373Z,10.30
2023-01-05T09:03:16.619Z,10.30
2023-01-05T09:05:44.676Z,10.30
2023-01-05T09:08:12.677Z,10.40
2023-01-05T09:10:40.651Z,10.40
2023-01-05T09:13:08.634Z,10.30
2023-01-05T09:15:37.990Z,10.40
2023-01-05T09:18:05.960Z,10.40
2023-01-05T09:20:39.541Z,10.40
2023-01-05T09:23:08.134Z,10.40
2023-01-05T09:25:36.189Z,10.40
2023-01-05T09:28:04.160Z,10.40
2023-01-05T09:30:38.507Z,10.50
2023-01-05T09:33:11.401Z,10.50
2023-01-05T09:35:39.363Z,10.60
2023-01-05T09:38:07.319Z,10.60
2023-01-05T09:40:40.956Z,10.60
2023-01-05T09:43:18.702Z,10.50
2023-01-05T09:45:47.034Z,10.40
2023-01-05T09:48:17.054Z,10.30
2023-01-05T09:50:48.157Z,10.20
2023-01-05T09:53:17.495Z,10.10
2023-01-05T09:55:47.685Z,9.90
2023-01-05T09:58:18.562Z,9.80
2023-01-05T10:01:04.808Z,9.80
2023-01-05T10:04:02.939Z,9.80
2023-01-05T10:06:29.942Z,9.70
2023-01-05T10:08:58.190Z,9.80
2023-01-05T10:11:53.111Z,9.70
2023-01-05T10:14:25.527Z,9.70
2023-01-05T10:17:22.468Z,9.80
2023-01-05T10:19:43.307Z,9.70
2023-01-05T10:22:44.401Z,9.80
2023-01-05T10:25:21.992Z,9.80
2023-01-05T10:27:59.903Z,9.80
2023-01-05T10:30:44.678Z,9.70
2023-01-05T10:33:40.239Z,9.80
2023-01-05T10:36:49.235Z,9.70
2023-01-05T10:39:23.199Z,9.80
2023-01-05T10:42:04.015Z,9.80
2023-01-05T10:44:50.970Z,9.80
2023-01-05T10:47:19.333Z,9.80
2023-01-05T10:49:48.284Z,9.80
2023-01-05T10:52:19.974Z,9.90
2023-01-05T10:54:51.434Z,10.10
2023-01-05T10:57:40.817Z,10.20
2023-01-05T11:00:14.272Z,10.30
2023-01-05T11:02:48.105Z,10.40
2023-01-05T11:05:29.111Z,10.60
2023-01-05T11:08:00.754Z,10.70
2023-01-05T11:10:32.280Z,10.80
2023-01-05T11:13:06.645Z,10.80
2023-01-05T11:15:43.665Z,10.80
2023-01-05T11:18:23.886Z,10.90
2023-01-05T11:21:22.965Z,10.80
2023-01-05T11:23:54.123Z,10.90
2023-01-05T11:26:28.497Z,11.00
2023-01-05T11:29:14.403Z,11.10
2023-01-05T11:31:46.863Z,11.20
2023-01-05T11:34:30.422Z,11.20
2023-01-05T11:37:05.823Z,11.20
2023-01-05T11:39:42.930Z,11.30
2023-01-05T11:42:23.326Z,11.30
2023-01-05T11:44:56.030Z,11.30
2023-01-05T11:47:29.276Z,11.40
2023-01-05T11:50:09.247Z,11.50
2023-01-05T11:52:39.730Z,11.60
2023-01-05T11:55:31.210Z,11.60
2023-01-05T11:58:19.096Z,11.60
2023-01-05T12:01:15.023Z,11.60
2023-01-05T12:04:02.244Z,11.50
2023-01-05T12:06:52.826Z,11.50
2023-01-05T12:09:32.653Z,11.30
2023-01-05T12:12:22.859Z,11.10
2023-01-05T12:15:15.991Z,10.90
2023-01-05T12:17:52.647Z,10.60
2023-01-05T12:20:45.703Z,10.50
2023-01-05T12:23:38.166Z,10.40
2023-01-05T12:26:19.093Z,10.30
2023-01-05T12:35:32.146Z,10.10
2023-01-05T12:38:25.250Z,10.00
2023-01-05T12:41:13.297Z,10.00
2023-01-05T12:43:51.966Z,10.00
2023-01-05T12:46:33.088Z,10.00
2023-01-05T12:49:04.328Z,10.00
2023-01-05T12:51:38.532Z,10.00
2023-01-05T12:54:11.207Z,10.00
2023-01-05T12:56:42.633Z,10.00
2023-01-05T12:59:17.958Z,9.90
2023-01-05T13:01:57.487Z,9.90
2023-01-05T13:04:41.387Z,9.90
2023-01-05T13:07:18.923Z,9.80
2023-01-05T13:09:57.053Z,9.80
2023-01-05T13:12:27.658Z,9.90
2023-01-05T13:15:05.718Z,9.90
2023-01-05T13:17:37.590Z,9.80
2023-01-05T13:20:20.449Z,9.80
2023-01-05T13:22:50.338Z,9.80
2023-01-05T13:25:20.897Z,9.90
2023-01-05T13:27:48.945Z,9.90
2023-01-05T13:30:23.572Z,9.90
2023-01-05T13:33:19.229Z,9.90
2023-01-05T13:35:57.995Z,9.90
2023-01-05T13:38:56.111Z,9.90
2023-01-05T13:41:48.863Z,9.90
2023-01-05T13:44:35.957Z,9.90
2023-01-05T13:47:27.506Z,9.90
2023-01-05T13:50:24.409Z,9.90
2023-01-05T13:53:05.698Z,9.90
2023-01-05T13:55:36.916Z,9.90
2023-01-05T13:58:06.211Z,10.00
2023-01-05T14:00:38.348Z,10.00
2023-01-05T14:03:08.375Z,10.00
2023-01-05T14:05:48.676Z,9.90
2023-01-05T14:08:23.039Z,9.90
2023-01-05T14:11:14.756Z,10.00
2023-01-05T14:13:51.995Z,9.90
2023-01-05T14:16:51.213Z,9.90
2023-01-05T14:19:25.308Z,9.90
2023-01-05T14:22:25.156Z,9.90
2023-01-05T14:24:54.331Z,9.90
2023-01-05T14:27:24.945Z,9.90
2023-01-05T14:30:24.277Z,9.80
2023-01-05T14:32:56.582Z,9.80
2023-01-05T14:35:31.864Z,9.80
2023-01-05T14:38:04.120Z,9.80
2023-01-05T14:40:36.239Z,9.80
2023-01-05T14:43:07.921Z,9.80
2023-01-05T14:45:38.154Z,9.80
2023-01-05T14:48:25.178Z,9.80
2023-01-05T14:51:19.789Z,9.80
2023-01-05T14:53:50.769Z,9.80
2023-01-05T14:56:22.281Z,9.70
2023-01-05T14:59:05.751Z,9.70
2023-01-05T15:04:15.027Z,9.60
2023-01-05T15:06:54.101Z,9.60
2023-01-05T15:09:44.980Z,9.60
2023-01-05T15:12:35.661Z,9.60
2023-01-05T15:15:40.859Z,9.60
2023-01-05T15:18:33.548Z,9.60
2023-01-05T15:21:35.954Z,9.60
2023-01-05T15:24:38.971Z,9.50
2023-01-05T15:27:50.332Z,9.60
2023-01-05T15:30:33.299Z,9.50
2023-01-05T15:33:10.606Z,9.50
2023-01-05T15:35:44.710Z,9.50
2023-01-05T15:38:22.130Z,9.50
2023-01-05T15:40:53.102Z,9.50
2023-01-05T15:43:22.698Z,9.50
2023-01-05T15:45:53.431Z,9.50
2023-01-05T15:48:29.786Z,9.50
2023-01-05T15:50:59.565Z,9.50
2023-01-05T15:53:30.830Z,9.50
2023-01-05T15:55:59.563Z,9.40
2023-01-05T15:58:31.987Z,9.40
2023-01-05T16:01:06.411Z,9.40
2023-01-05T16:03:36.502Z,9.40
2023-01-05T16:06:07.942Z,9.40
2023-01-05T16:08:41.437Z,9.40
2023-01-05T16:11:11.220Z,9.40
2023-01-05T16:13:45.101Z,9.40
2023-01-05T16:16:43.412Z,9.40
2023-01-05T16:19:11.465Z,9.30
2023-01-05T16:21:42.798Z,9.40
2023-01-05T16:24:19.343Z,9.30
2023-01-05T16:26:47.538Z,9.30
2023-01-05T16:29:34.766Z,9.30
2023-01-05T16:32:03.235Z,9.30
2023-01-05T16:34:31.608Z,9.30
2023-01-05T16:37:01.902Z,9.30
2023-01-05T16:39:36.235Z,9.30
2023-01-05T16:42:24.151Z,9.30
2023-01-05T16:44:57.592Z,9.30
2023-01-05T16:47:35.539Z,9.30
2023-01-05T16:50:26.105Z,9.30
2023-01-05T16:52:54.936Z,9.20
2023-01-05T16:55:29.060Z,9.20
2023-01-05T16:57:57.759Z,9.20
2023-01-05T17:00:38.960Z,9.20
2023-01-05T17:03:30.113Z,9.20
2023-01-05T17:05:59.368Z,9.10
2023-01-05T17:08:31.638Z,9.10
2023-01-05T17:11:01.418Z,9.00
2023-01-05T17:13:36.705Z,9.00
2023-01-05T17:16:07.042Z,8.90
2023-01-05T17:18:34.995Z,8.90
2023-01-05T17:21:05.206Z,8.90
2023-01-05T17:23:36.410Z,8.80
2023-01-05T17:26:07.300Z,8.70
2023-01-05T17:28:35.284Z,8.60
2023-01-05T17:31:03.346Z,8.60
2023-01-05T17:33:32.692Z,8.70
2023-01-05T17:36:01.675Z,8.60
2023-01-05T17:38:29.645Z,8.60
2023-01-05T17:40:58.528Z,8.60
2023-01-05T17:43:26.841Z,8.50
2023-01-05T17:45:54.985Z,8.60
2023-01-05T17:48:22.965Z,8.50
2023-01-05T17:50:54.178Z,8.50
2023-01-05T17:53:22.551Z,8.60
2023-01-05T17:55:50.525Z,8.60
2023-01-05T17:58:18.509Z,8.60
2023-01-05T18:03:22.356Z,8.60
2023-01-05T18:05:53.410Z,8.50
2023-01-05T18:08:22.153Z,8.40
2023-01-05T18:10:50.101Z,8.40
2023-01-05T18:13:21.567Z,8.30
2023-01-05T18:15:53.001Z,8.30
2023-01-05T18:18:21.823Z,8.30
2023-01-05T18:20:51.471Z,8.30
2023-01-05T18:23:24.328Z,8.30
2023-01-05T18:25:52.536Z,8.30
2023-01-05T18:28:20.617Z,8.30
2023-01-05T18:30:48.680Z,8.30
2023-01-05T18:33:16.715Z,8.30
2023-01-05T18:35:45.002Z,8.30
2023-01-05T18:38:13.006Z,8.30
2023-01-05T18:40:42.438Z,8.30
2023-01-05T18:43:10.421Z,8.30
2023-01-05T18:45:39.627Z,8.20
2023-01-05T18:48:08.418Z,8.20
2023-01-05T18:50:40.859Z,8.20
2023-01-05T18:53:08.849Z,8.30
2023-01-05T18:55:40.674Z,8.30
2023-01-05T18:58:11.142Z,8.30
2023-01-05T19:00:40.566Z,8.20
2023-01-05T19:03:08.767Z,8.20
2023-01-05T19:05:40.943Z,8.20
2023-01-05T19:08:09.437Z,8.20
2023-01-05T19:10:37.903Z,8.20
2023-01-05T19:13:06.831Z,8.20
2023-01-05T19:15:37.913Z,8.20
2023-01-05T19:18:06.372Z,8.20
2023-01-05T19:20:34.377Z,8.20
2023-01-05T19:23:02.597Z,8.10
2023-01-05T19:25:31.625Z,8.20
2023-01-05T19:28:02.159Z,8.20
2023-01-05T19:30:30.345Z,8.20
2023-01-05T19:33:01.059Z,8.20
2023-01-05T19:35:31.043Z,8.20
2023-01-05T19:38:00.440Z,8.20
2023-01-05T19:40:28.531Z,8.20
2023-01-05T19:42:57.012Z,8.10
2023-01-05T19:45:25.064Z,8.10
2023-01-05T19:47:53.238Z,8.00
2023-01-05T19:50:22.629Z,8.00
2023-01-05T19:52:50.610Z,7.90
2023-01-05T19:55:18.726Z,7.90
2023-01-05T19:57:46.745Z,7.90
2023-01-05T20:00:16.183Z,7.80
2023-01-05T20:02:44.284Z,7.90
2023-01-05T20:05:14.096Z,7.90
2023-01-05T20:07:43.840Z,7.90
2023-01-05T20:10:12.137Z,7.90
2023-01-05T20:12:40.140Z,7.90
2023-01-05T20:15:08.947Z,7.90
2023-01-05T20:17:36.933Z,7.80
2023-01-05T20:20:05.256Z,7.80
2023-01-05T20:22:33.799Z,7.80
2023-01-05T20:25:03.179Z,7.80
2023-01-05T20:27:31.336Z,7.90
2023-01-05T20:29:59.856Z,7.90
2023-01-05T20:32:29.075Z,7.90
2023-01-05T20:35:00.369Z,7.90
2023-01-05T20:37:30.109Z,8.00
2023-01-05T20:39:59.587Z,8.00
2023-01-05T20:42:30.417Z,8.00
2023-01-05T20:44:58.701Z,8.00
2023-01-05T20:47:27.259Z,8.00
2023-01-05T20:49:56.699Z,8.00
2023-01-05T20:52:25.170Z,8.00
2023-01-05T20:54:55.874Z,8.00
2023-01-05T20:57:24.225Z,8.00
2023-01-05T20:59:53.948Z,7.90
2023-01-05T21:02:24.728Z,7.80
2023-01-05T21:04:53.487Z,7.80
2023-01-05T21:07:21.573Z,7.80
2023-01-05T21:09:51.086Z,7.80
2023-01-05T21:12:19.414Z,7.70
2023-01-05T21:14:47.455Z,7.70
2023-01-05T21:17:16.789Z,7.70
2023-01-05T21:19:44.802Z,7.70
2023-01-05T21:22:12.810Z,7.70
2023-01-05T21:24:41.032Z,7.70
2023-01-05T21:27:09.156Z,7.70
2023-01-05T21:29:37.328Z,7.70
2023-01-05T21:32:05.463Z,7.70
2023-01-05T21:34:34.858Z,7.70
2023-01-05T21:37:02.926Z,7.70
2023-01-05T21:39:30.924Z,7.70
2023-01-05T21:42:16.680Z,7.70
2023-01-05T21:44:44.676Z,7.70
2023-01-05T21:47:12.839Z,7.70
2023-01-05T21:49:42.130Z,7.70
2023-01-05T21:52:29.228Z,7.70
2023-01-05T21:55:26.267Z,7.70
2023-01-05T21:57:54.845Z,7.70
2023-01-05T22:00:23.072Z,7.70
2023-01-05T22:02:51.212Z,7.70
2023-01-05T22:05:20.945Z,7.70
2023-01-05T22:07:48.914Z,7.70
2023-01-05T22:10:17.744Z,7.70
2023-01-05T22:12:45.788Z,7.70
2023-01-05T22:15:13.724Z,7.70
2023-01-05T22:17:43.072Z,7.70
2023-01-05T22:20:13.715Z,7.70
2023-01-05T22:22:43.220Z,7.70
2023-01-05T22:25:11.430Z,7.70
2023-01-05T22:27:39.455Z,7.70
2023-01-05T22:30:08.906Z,7.70
2023-01-05T22:32:36.980Z,7.60
2023-01-05T22:35:05.945Z,7.70
2023-01-05T22:37:34.011Z,7.70
2023-01-05T22:40:03.572Z,7.70
2023-01-05T22:42:31.594Z,7.70
2023-01-05T22:44:59.584Z,7.70
2023-01-05T22:47:27.588Z,7.60
2023-01-05T22:49:55.600Z,7.50
2023-01-05T22:52:23.905Z,7.50
2023-01-05T22:54:51.874Z,7.50
2023-01-05T22:57:21.231Z,7.40
2023-01-05T22:59:49.196Z,7.30
2023-01-05T23:02:17.271Z,7.30
2023-01-05T23:04:45.252Z,7.20
2023-01-05T23:07:13.211Z,7.20
2023-01-05T23:09:41.453Z,7.30
2023-01-05T23:12:11.312Z,7.30
2023-01-05T23:14:41.289Z,7.30
2023-01-05T23:17:12.196Z,7.30
2023-01-05T23:19:40.233Z,7.20
2023-01-05T23:22:10.744Z,7.20
2023-01-05T23:24:39.436Z,7.10
2023-01-05T23:27:07.411Z,7.10
2023-01-05T23:29:35.470Z,7.10
2023-01-05T23:32:05.787Z,7.20
2023-01-05T23:34:33.780Z,7.30
2023-01-05T23:37:01.765Z,7.20
2023-01-05T23:39:29.723Z,7.20
2023-01-05T23:41:57.777Z,7.10
2023-01-05T23:44:25.751Z,7.10
2023-01-05T23:46:53.694Z,7.00
2023-01-05T23:49:22.999Z,7.00
2023-01-05T23:51:51.006Z,7.00
2023-01-05T23:54:19.101Z,7.00
2023-01-05T23:56:47.094Z,7.00
2023-01-05T23:59:15.054Z,7.00
